sensor_id;sensor_type;location;lat;lon;timestamp;P1;durP1;ratioP1;P2;durP2;ratioP2
57635;SDS011;43465;50.728;4.160;2023-05-01T00:00:50;4.10;;;3.38;;
57635;SDS011;43465;50.728;4.160;2023-05-01T00:03:16;4.50;;;3.78;;
57635;SDS011;43465;50.728;4.160;2023-05-01T00:05:42;4.43;;;4.10;;
57635;SDS011;43465;50.728;4.160;2023-05-01T00:08:11;5.95;;;4.50;;
57635;SDS011;43465;50.728;4.160;2023-05-01T00:10:37;5.28;;;4.55;;
57635;SDS011;43465;50.728;4.160;2023-05-01T00:13:03;4.72;;;4.15;;
57635;SDS011;43465;50.728;4.160;2023-05-01T00:15:30;7.43;;;4.50;;
57635;SDS011;43465;50.728;4.160;2023-05-01T00:17:56;5.65;;;4.03;;
57635;SDS011;43465;50.728;4.160;2023-05-01T00:20:26;5.90;;;4.53;;
57635;SDS011;43465;50.728;4.160;2023-05-01T00:22:52;4.70;;;4.30;;
57635;SDS011;43465;50.728;4.160;2023-05-01T00:25:18;5.70;;;3.90;;
57635;SDS011;43465;50.728;4.160;2023-05-01T00:27:43;3.78;;;3.47;;
57635;SDS011;43465;50.728;4.160;2023-05-01T00:30:09;3.75;;;3.45;;
57635;SDS011;43465;50.728;4.160;2023-05-01T00:32:35;4.85;;;3.67;;
57635;SDS011;43465;50.728;4.160;2023-05-01T00:35:02;4.15;;;3.75;;
57635;SDS011;43465;50.728;4.160;2023-05-01T00:37:28;4.13;;;3.65;;
57635;SDS011;43465;50.728;4.160;2023-05-01T00:39:54;3.63;;;3.30;;
57635;SDS011;43465;50.728;4.160;2023-05-01T00:42:19;4.07;;;3.20;;
57635;SDS011;43465;50.728;4.160;2023-05-01T00:44:45;3.55;;;3.20;;
57635;SDS011;43465;50.728;4.160;2023-05-01T00:47:11;4.65;;;3.30;;
57635;SDS011;43465;50.728;4.160;2023-05-01T00:49:37;4.47;;;3.20;;
57635;SDS011;43465;50.728;4.160;2023-05-01T00:52:02;3.83;;;3.35;;
57635;SDS011;43465;50.728;4.160;2023-05-01T00:54:28;3.60;;;2.90;;
57635;SDS011;43465;50.728;4.160;2023-05-01T00:56:54;5.22;;;3.65;;
57635;SDS011;43465;50.728;4.160;2023-05-01T00:59:20;3.90;;;3.50;;
57635;SDS011;43465;50.728;4.160;2023-05-01T01:01:46;6.15;;;3.13;;
57635;SDS011;43465;50.728;4.160;2023-05-01T01:04:12;5.95;;;3.65;;
57635;SDS011;43465;50.728;4.160;2023-05-01T01:14:41;7.43;;;3.30;;
57635;SDS011;43465;50.728;4.160;2023-05-01T01:17:20;3.70;;;3.40;;
57635;SDS011;43465;50.728;4.160;2023-05-01T01:22:52;4.30;;;4.00;;
57635;SDS011;43465;50.728;4.160;2023-05-01T01:31:20;5.70;;;4.50;;
57635;SDS011;43465;50.728;4.160;2023-05-01T01:36:33;7.10;;;5.22;;
57635;SDS011;43465;50.728;4.160;2023-05-01T01:39:04;5.85;;;5.32;;
57635;SDS011;43465;50.728;4.160;2023-05-01T01:41:33;5.20;;;4.72;;
57635;SDS011;43465;50.728;4.160;2023-05-01T01:44:05;6.35;;;5.65;;
57635;SDS011;43465;50.728;4.160;2023-05-01T01:46:40;8.20;;;5.82;;
57635;SDS011;43465;50.728;4.160;2023-05-01T01:49:08;5.65;;;5.20;;
57635;SDS011;43465;50.728;4.160;2023-05-01T01:54:05;8.32;;;6.10;;
57635;SDS011;43465;50.728;4.160;2023-05-01T01:56:33;6.95;;;5.90;;
57635;SDS011;43465;50.728;4.160;2023-05-01T01:59:01;5.93;;;5.43;;
57635;SDS011;43465;50.728;4.160;2023-05-01T02:01:31;6.20;;;5.70;;
57635;SDS011;43465;50.728;4.160;2023-05-01T02:03:59;6.25;;;5.75;;
57635;SDS011;43465;50.728;4.160;2023-05-01T02:06:25;6.00;;;5.50;;
57635;SDS011;43465;50.728;4.160;2023-05-01T02:08:52;6.45;;;5.88;;
57635;SDS011;43465;50.728;4.160;2023-05-01T02:11:20;7.10;;;5.80;;
57635;SDS011;43465;50.728;4.160;2023-05-01T02:13:47;6.25;;;5.65;;
57635;SDS011;43465;50.728;4.160;2023-05-01T02:16:14;5.85;;;5.35;;
57635;SDS011;43465;50.728;4.160;2023-05-01T02:18:40;6.38;;;5.70;;
57635;SDS011;43465;50.728;4.160;2023-05-01T02:21:07;6.50;;;5.80;;
57635;SDS011;43465;50.728;4.160;2023-05-01T02:23:35;6.00;;;5.40;;
57635;SDS011;43465;50.728;4.160;2023-05-01T02:26:02;6.90;;;6.10;;
57635;SDS011;43465;50.728;4.160;2023-05-01T02:28:29;6.50;;;5.90;;
57635;SDS011;43465;50.728;4.160;2023-05-01T02:30:56;6.63;;;5.90;;
57635;SDS011;43465;50.728;4.160;2023-05-01T02:33:22;6.95;;;5.65;;
57635;SDS011;43465;50.728;4.160;2023-05-01T02:35:48;7.38;;;6.07;;
57635;SDS011;43465;50.728;4.160;2023-05-01T02:38:14;6.20;;;5.38;;
57635;SDS011;43465;50.728;4.160;2023-05-01T02:40:42;6.53;;;5.00;;
57635;SDS011;43465;50.728;4.160;2023-05-01T02:43:11;6.00;;;5.50;;
57635;SDS011;43465;50.728;4.160;2023-05-01T02:45:40;5.70;;;5.20;;
57635;SDS011;43465;50.728;4.160;2023-05-01T02:48:08;7.20;;;5.40;;
57635;SDS011;43465;50.728;4.160;2023-05-01T02:50:36;6.95;;;5.50;;
57635;SDS011;43465;50.728;4.160;2023-05-01T02:53:04;6.80;;;5.70;;
57635;SDS011;43465;50.728;4.160;2023-05-01T02:55:31;6.60;;;6.00;;
57635;SDS011;43465;50.728;4.160;2023-05-01T02:57:57;8.10;;;6.20;;
57635;SDS011;43465;50.728;4.160;2023-05-01T03:00:24;6.85;;;6.25;;
57635;SDS011;43465;50.728;4.160;2023-05-01T03:02:50;7.43;;;6.70;;
57635;SDS011;43465;50.728;4.160;2023-05-01T03:05:16;7.05;;;6.40;;
57635;SDS011;43465;50.728;4.160;2023-05-01T03:07:41;7.18;;;6.57;;
57635;SDS011;43465;50.728;4.160;2023-05-01T03:10:07;7.97;;;6.70;;
57635;SDS011;43465;50.728;4.160;2023-05-01T03:12:33;8.10;;;7.38;;
57635;SDS011;43465;50.728;4.160;2023-05-01T03:14:59;7.60;;;6.90;;
57635;SDS011;43465;50.728;4.160;2023-05-01T03:17:24;8.35;;;6.97;;
57635;SDS011;43465;50.728;4.160;2023-05-01T03:19:51;8.48;;;7.78;;
57635;SDS011;43465;50.728;4.160;2023-05-01T03:22:16;8.57;;;7.43;;
57635;SDS011;43465;50.728;4.160;2023-05-01T03:24:44;7.82;;;7.13;;
57635;SDS011;43465;50.728;4.160;2023-05-01T03:27:11;8.25;;;7.55;;
57635;SDS011;43465;50.728;4.160;2023-05-01T03:29:37;7.78;;;7.07;;
57635;SDS011;43465;50.728;4.160;2023-05-01T03:32:03;8.20;;;7.40;;
57635;SDS011;43465;50.728;4.160;2023-05-01T03:34:29;13.07;;;7.88;;
57635;SDS011;43465;50.728;4.160;2023-05-01T03:36:55;7.75;;;7.05;;
57635;SDS011;43465;50.728;4.160;2023-05-01T03:39:21;7.82;;;7.15;;
57635;SDS011;43465;50.728;4.160;2023-05-01T03:41:47;8.20;;;7.45;;
57635;SDS011;43465;50.728;4.160;2023-05-01T03:44:12;8.95;;;8.13;;
57635;SDS011;43465;50.728;4.160;2023-05-01T03:46:38;9.38;;;8.48;;
57635;SDS011;43465;50.728;4.160;2023-05-01T03:49:04;8.85;;;7.97;;
57635;SDS011;43465;50.728;4.160;2023-05-01T03:51:30;8.52;;;7.80;;
57635;SDS011;43465;50.728;4.160;2023-05-01T03:53:56;9.40;;;8.50;;
57635;SDS011;43465;50.728;4.160;2023-05-01T03:56:23;9.25;;;8.35;;
57635;SDS011;43465;50.728;4.160;2023-05-01T03:58:52;10.70;;;9.70;;
57635;SDS011;43465;50.728;4.160;2023-05-01T04:01:18;9.40;;;8.50;;
57635;SDS011;43465;50.728;4.160;2023-05-01T04:03:44;9.88;;;8.98;;
57635;SDS011;43465;50.728;4.160;2023-05-01T04:06:10;10.13;;;9.18;;
57635;SDS011;43465;50.728;4.160;2023-05-01T04:08:36;9.85;;;8.95;;
57635;SDS011;43465;50.728;4.160;2023-05-01T04:11:02;10.60;;;9.60;;
57635;SDS011;43465;50.728;4.160;2023-05-01T04:13:28;10.75;;;9.07;;
57635;SDS011;43465;50.728;4.160;2023-05-01T04:15:54;8.77;;;8.07;;
57635;SDS011;43465;50.728;4.160;2023-05-01T04:18:21;11.07;;;10.07;;
57635;SDS011;43465;50.728;4.160;2023-05-01T04:20:47;10.73;;;9.70;;
57635;SDS011;43465;50.728;4.160;2023-05-01T04:23:12;9.90;;;9.00;;
57635;SDS011;43465;50.728;4.160;2023-05-01T04:25:38;11.82;;;10.18;;
57635;SDS011;43465;50.728;4.160;2023-05-01T04:28:04;11.80;;;9.88;;
57635;SDS011;43465;50.728;4.160;2023-05-01T04:30:30;13.25;;;10.88;;
57635;SDS011;43465;50.728;4.160;2023-05-01T04:32:56;14.80;;;10.77;;
57635;SDS011;43465;50.728;4.160;2023-05-01T04:35:25;11.25;;;10.25;;
57635;SDS011;43465;50.728;4.160;2023-05-01T04:37:51;11.43;;;10.35;;
57635;SDS011;43465;50.728;4.160;2023-05-01T04:40:17;11.90;;;10.70;;
57635;SDS011;43465;50.728;4.160;2023-05-01T04:42:42;11.32;;;10.23;;
57635;SDS011;43465;50.728;4.160;2023-05-01T04:45:08;10.85;;;9.85;;
57635;SDS011;43465;50.728;4.160;2023-05-01T04:47:34;11.80;;;10.68;;
57635;SDS011;43465;50.728;4.160;2023-05-01T04:50:00;12.25;;;10.98;;
57635;SDS011;43465;50.728;4.160;2023-05-01T04:52:26;12.68;;;11.38;;
57635;SDS011;43465;50.728;4.160;2023-05-01T04:54:51;12.00;;;10.77;;
57635;SDS011;43465;50.728;4.160;2023-05-01T04:57:17;11.50;;;10.50;;
57635;SDS011;43465;50.728;4.160;2023-05-01T04:59:43;12.23;;;11.02;;
57635;SDS011;43465;50.728;4.160;2023-05-01T05:02:08;13.43;;;12.02;;
57635;SDS011;43465;50.728;4.160;2023-05-01T05:04:34;12.88;;;11.65;;
57635;SDS011;43465;50.728;4.160;2023-05-01T05:07:00;12.68;;;11.38;;
57635;SDS011;43465;50.728;4.160;2023-05-01T05:09:26;13.40;;;12.00;;
57635;SDS011;43465;50.728;4.160;2023-05-01T05:11:51;12.23;;;11.10;;
57635;SDS011;43465;50.728;4.160;2023-05-01T05:14:17;13.23;;;11.93;;
57635;SDS011;43465;50.728;4.160;2023-05-01T05:16:42;13.98;;;11.93;;
57635;SDS011;43465;50.728;4.160;2023-05-01T05:19:08;12.73;;;11.35;;
57635;SDS011;43465;50.728;4.160;2023-05-01T05:21:34;14.23;;;12.60;;
57635;SDS011;43465;50.728;4.160;2023-05-01T05:23:59;13.38;;;12.15;;
57635;SDS011;43465;50.728;4.160;2023-05-01T05:26:25;13.98;;;12.02;;
57635;SDS011;43465;50.728;4.160;2023-05-01T05:28:51;12.98;;;11.65;;
57635;SDS011;43465;50.728;4.160;2023-05-01T05:31:17;12.65;;;11.45;;
57635;SDS011;43465;50.728;4.160;2023-05-01T05:33:42;12.88;;;11.68;;
57635;SDS011;43465;50.728;4.160;2023-05-01T05:36:08;12.63;;;11.23;;
57635;SDS011;43465;50.728;4.160;2023-05-01T05:38:35;11.77;;;10.70;;
57635;SDS011;43465;50.728;4.160;2023-05-01T05:41:00;12.00;;;10.75;;
57635;SDS011;43465;50.728;4.160;2023-05-01T05:43:26;12.18;;;10.93;;
57635;SDS011;43465;50.728;4.160;2023-05-01T05:45:55;11.52;;;10.55;;
57635;SDS011;43465;50.728;4.160;2023-05-01T05:48:22;11.52;;;10.50;;
57635;SDS011;43465;50.728;4.160;2023-05-01T05:50:48;12.07;;;10.88;;
57635;SDS011;43465;50.728;4.160;2023-05-01T05:53:16;12.27;;;11.07;;
57635;SDS011;43465;50.728;4.160;2023-05-01T05:55:42;11.32;;;10.32;;
57635;SDS011;43465;50.728;4.160;2023-05-01T05:58:09;14.50;;;12.40;;
57635;SDS011;43465;50.728;4.160;2023-05-01T06:00:35;12.30;;;11.15;;
57635;SDS011;43465;50.728;4.160;2023-05-01T06:03:01;13.23;;;11.93;;
57635;SDS011;43465;50.728;4.160;2023-05-01T06:05:26;13.27;;;11.98;;
57635;SDS011;43465;50.728;4.160;2023-05-01T06:07:52;14.25;;;12.60;;
57635;SDS011;43465;50.728;4.160;2023-05-01T06:10:19;13.00;;;11.70;;
57635;SDS011;43465;50.728;4.160;2023-05-01T06:12:44;13.82;;;12.55;;
57635;SDS011;43465;50.728;4.160;2023-05-01T06:15:11;13.07;;;11.77;;
57635;SDS011;43465;50.728;4.160;2023-05-01T06:17:40;13.73;;;12.35;;
57635;SDS011;43465;50.728;4.160;2023-05-01T06:20:07;14.38;;;12.88;;
57635;SDS011;43465;50.728;4.160;2023-05-01T06:22:33;15.50;;;13.68;;
57635;SDS011;43465;50.728;4.160;2023-05-01T06:24:59;15.68;;;14.07;;
57635;SDS011;43465;50.728;4.160;2023-05-01T06:27:24;17.17;;;15.57;;
57635;SDS011;43465;50.728;4.160;2023-05-01T06:29:50;17.73;;;16.10;;
57635;SDS011;43465;50.728;4.160;2023-05-01T06:32:16;20.67;;;16.42;;
57635;SDS011;43465;50.728;4.160;2023-05-01T06:34:41;19.25;;;17.45;;
57635;SDS011;43465;50.728;4.160;2023-05-01T06:37:07;19.90;;;17.80;;
57635;SDS011;43465;50.728;4.160;2023-05-01T06:39:33;20.98;;;18.77;;
57635;SDS011;43465;50.728;4.160;2023-05-01T06:41:59;25.77;;;22.70;;
57635;SDS011;43465;50.728;4.160;2023-05-01T06:44:27;25.30;;;22.60;;
57635;SDS011;43465;50.728;4.160;2023-05-01T06:46:53;27.10;;;24.15;;
57635;SDS011;43465;50.728;4.160;2023-05-01T06:49:18;25.35;;;22.70;;
57635;SDS011;43465;50.728;4.160;2023-05-01T06:51:44;26.90;;;24.08;;
57635;SDS011;43465;50.728;4.160;2023-05-01T06:54:10;28.45;;;25.45;;
57635;SDS011;43465;50.728;4.160;2023-05-01T06:56:35;30.80;;;25.08;;
57635;SDS011;43465;50.728;4.160;2023-05-01T06:59:01;32.72;;;26.10;;
57635;SDS011;43465;50.728;4.160;2023-05-01T07:01:28;27.95;;;24.90;;
57635;SDS011;43465;50.728;4.160;2023-05-01T07:03:53;29.83;;;26.60;;
57635;SDS011;43465;50.728;4.160;2023-05-01T07:06:19;28.75;;;25.65;;
57635;SDS011;43465;50.728;4.160;2023-05-01T07:08:45;29.58;;;25.17;;
57635;SDS011;43465;50.728;4.160;2023-05-01T07:11:10;30.67;;;27.48;;
57635;SDS011;43465;50.728;4.160;2023-05-01T07:13:36;29.33;;;26.15;;
57635;SDS011;43465;50.728;4.160;2023-05-01T07:16:02;32.70;;;26.67;;
57635;SDS011;43465;50.728;4.160;2023-05-01T07:18:28;30.45;;;26.50;;
57635;SDS011;43465;50.728;4.160;2023-05-01T07:20:54;31.13;;;27.40;;
57635;SDS011;43465;50.728;4.160;2023-05-01T07:23:19;34.33;;;27.83;;
57635;SDS011;43465;50.728;4.160;2023-05-01T07:25:47;32.92;;;27.67;;
57635;SDS011;43465;50.728;4.160;2023-05-01T07:28:13;36.65;;;29.42;;
57635;SDS011;43465;50.728;4.160;2023-05-01T07:30:39;32.42;;;27.20;;
57635;SDS011;43465;50.728;4.160;2023-05-01T07:33:04;35.03;;;29.30;;
57635;SDS011;43465;50.728;4.160;2023-05-01T07:35:30;34.53;;;29.40;;
57635;SDS011;43465;50.728;4.160;2023-05-01T07:37:56;35.05;;;28.98;;
57635;SDS011;43465;50.728;4.160;2023-05-01T07:40:22;33.83;;;27.85;;
57635;SDS011;43465;50.728;4.160;2023-05-01T07:42:48;33.38;;;28.73;;
57635;SDS011;43465;50.728;4.160;2023-05-01T07:45:14;36.15;;;30.83;;
57635;SDS011;43465;50.728;4.160;2023-05-01T07:47:40;36.03;;;30.08;;
57635;SDS011;43465;50.728;4.160;2023-05-01T07:50:08;35.42;;;30.08;;
57635;SDS011;43465;50.728;4.160;2023-05-01T07:52:35;37.53;;;31.17;;
57635;SDS011;43465;50.728;4.160;2023-05-01T07:55:01;39.17;;;31.50;;
57635;SDS011;43465;50.728;4.160;2023-05-01T07:57:27;37.92;;;32.28;;
57635;SDS011;43465;50.728;4.160;2023-05-01T07:59:54;41.38;;;32.15;;
57635;SDS011;43465;50.728;4.160;2023-05-01T08:02:22;39.35;;;31.27;;
57635;SDS011;43465;50.728;4.160;2023-05-01T08:04:48;40.20;;;31.33;;
57635;SDS011;43465;50.728;4.160;2023-05-01T08:07:14;40.63;;;31.70;;
57635;SDS011;43465;50.728;4.160;2023-05-01T08:09:40;40.13;;;33.35;;
57635;SDS011;43465;50.728;4.160;2023-05-01T08:12:05;37.28;;;31.10;;
57635;SDS011;43465;50.728;4.160;2023-05-01T08:14:31;41.95;;;32.30;;
57635;SDS011;43465;50.728;4.160;2023-05-01T08:16:57;44.35;;;33.13;;
57635;SDS011;43465;50.728;4.160;2023-05-01T08:19:23;42.70;;;33.85;;
57635;SDS011;43465;50.728;4.160;2023-05-01T08:21:49;40.85;;;33.17;;
57635;SDS011;43465;50.728;4.160;2023-05-01T08:24:15;46.35;;;34.42;;
57635;SDS011;43465;50.728;4.160;2023-05-01T08:26:40;42.25;;;34.17;;
57635;SDS011;43465;50.728;4.160;2023-05-01T08:29:06;42.03;;;34.17;;
57635;SDS011;43465;50.728;4.160;2023-05-01T08:31:32;41.28;;;32.78;;
57635;SDS011;43465;50.728;4.160;2023-05-01T08:34:01;45.45;;;34.58;;
57635;SDS011;43465;50.728;4.160;2023-05-01T08:36:27;41.85;;;34.65;;
57635;SDS011;43465;50.728;4.160;2023-05-01T08:38:53;36.28;;;30.88;;
57635;SDS011;43465;50.728;4.160;2023-05-01T08:41:20;42.47;;;33.72;;
57635;SDS011;43465;50.728;4.160;2023-05-01T08:43:47;41.35;;;33.47;;
57635;SDS011;43465;50.728;4.160;2023-05-01T08:46:14;42.92;;;32.60;;
57635;SDS011;43465;50.728;4.160;2023-05-01T08:48:53;40.67;;;33.33;;
57635;SDS011;43465;50.728;4.160;2023-05-01T08:51:23;41.45;;;33.25;;
57635;SDS011;43465;50.728;4.160;2023-05-01T08:53:50;41.85;;;32.40;;
57635;SDS011;43465;50.728;4.160;2023-05-01T08:56:18;37.83;;;30.98;;
57635;SDS011;43465;50.728;4.160;2023-05-01T08:58:48;37.72;;;30.35;;
57635;SDS011;43465;50.728;4.160;2023-05-01T09:01:14;38.35;;;29.17;;
57635;SDS011;43465;50.728;4.160;2023-05-01T09:03:41;39.15;;;31.95;;
57635;SDS011;43465;50.728;4.160;2023-05-01T09:06:09;34.95;;;28.65;;
57635;SDS011;43465;50.728;4.160;2023-05-01T09:08:35;35.45;;;28.50;;
57635;SDS011;43465;50.728;4.160;2023-05-01T09:11:01;32.85;;;28.02;;
57635;SDS011;43465;50.728;4.160;2023-05-01T09:13:28;34.83;;;26.85;;
57635;SDS011;43465;50.728;4.160;2023-05-01T09:15:54;33.50;;;28.02;;
57635;SDS011;43465;50.728;4.160;2023-05-01T09:18:20;33.60;;;26.60;;
57635;SDS011;43465;50.728;4.160;2023-05-01T09:20:46;32.50;;;26.33;;
57635;SDS011;43465;50.728;4.160;2023-05-01T09:23:12;36.72;;;26.70;;
57635;SDS011;43465;50.728;4.160;2023-05-01T09:25:37;31.02;;;24.83;;
57635;SDS011;43465;50.728;4.160;2023-05-01T09:28:04;30.30;;;25.50;;
57635;SDS011;43465;50.728;4.160;2023-05-01T09:30:31;29.15;;;24.90;;
57635;SDS011;43465;50.728;4.160;2023-05-01T09:33:14;30.15;;;25.60;;
57635;SDS011;43465;50.728;4.160;2023-05-01T09:35:52;31.90;;;25.65;;
57635;SDS011;43465;50.728;4.160;2023-05-01T09:38:19;28.20;;;25.20;;
57635;SDS011;43465;50.728;4.160;2023-05-01T09:40:49;31.45;;;25.58;;
57635;SDS011;43465;50.728;4.160;2023-05-01T09:43:23;28.83;;;25.65;;
57635;SDS011;43465;50.728;4.160;2023-05-01T09:46:06;42.53;;;30.13;;
57635;SDS011;43465;50.728;4.160;2023-05-01T09:48:37;39.83;;;29.58;;
57635;SDS011;43465;50.728;4.160;2023-05-01T09:51:19;27.67;;;24.73;;
57635;SDS011;43465;50.728;4.160;2023-05-01T09:53:46;29.35;;;25.38;;
57635;SDS011;43465;50.728;4.160;2023-05-01T09:56:12;30.70;;;25.08;;
57635;SDS011;43465;50.728;4.160;2023-05-01T09:58:38;29.42;;;24.35;;
57635;SDS011;43465;50.728;4.160;2023-05-01T10:01:04;27.80;;;24.27;;
57635;SDS011;43465;50.728;4.160;2023-05-01T10:03:30;28.15;;;24.45;;
57635;SDS011;43465;50.728;4.160;2023-05-01T10:05:57;27.27;;;23.85;;
57635;SDS011;43465;50.728;4.160;2023-05-01T10:08:26;26.58;;;23.42;;
57635;SDS011;43465;50.728;4.160;2023-05-01T10:11:03;24.67;;;21.75;;
57635;SDS011;43465;50.728;4.160;2023-05-01T10:13:29;29.42;;;22.05;;
57635;SDS011;43465;50.728;4.160;2023-05-01T10:15:55;25.48;;;20.45;;
57635;SDS011;43465;50.728;4.160;2023-05-01T10:18:20;24.00;;;21.30;;
57635;SDS011;43465;50.728;4.160;2023-05-01T10:20:47;25.65;;;21.75;;
57635;SDS011;43465;50.728;4.160;2023-05-01T10:23:13;23.55;;;21.02;;
57635;SDS011;43465;50.728;4.160;2023-05-01T10:25:39;26.95;;;22.17;;
57635;SDS011;43465;50.728;4.160;2023-05-01T10:28:07;24.75;;;20.95;;
57635;SDS011;43465;50.728;4.160;2023-05-01T10:30:33;22.50;;;20.15;;
57635;SDS011;43465;50.728;4.160;2023-05-01T10:33:00;22.90;;;20.52;;
57635;SDS011;43465;50.728;4.160;2023-05-01T10:35:28;23.67;;;20.27;;
57635;SDS011;43465;50.728;4.160;2023-05-01T10:38:05;21.40;;;19.08;;
57635;SDS011;43465;50.728;4.160;2023-05-01T10:43:11;21.77;;;18.77;;
57635;SDS011;43465;50.728;4.160;2023-05-01T10:45:53;23.48;;;18.90;;
57635;SDS011;43465;50.728;4.160;2023-05-01T10:51:17;23.80;;;19.02;;
57635;SDS011;43465;50.728;4.160;2023-05-01T10:53:45;21.10;;;18.80;;
57635;SDS011;43465;50.728;4.160;2023-05-01T10:58:58;21.20;;;17.73;;
57635;SDS011;43465;50.728;4.160;2023-05-01T11:01:40;24.13;;;19.10;;
57635;SDS011;43465;50.728;4.160;2023-05-01T11:07:26;22.77;;;17.90;;
57635;SDS011;43465;50.728;4.160;2023-05-01T11:09:42;23.85;;;20.20;;
57635;SDS011;43465;50.728;4.160;2023-05-01T11:12:11;23.23;;;20.58;;
57635;SDS011;43465;50.728;4.160;2023-05-01T11:15:11;22.30;;;19.80;;
57635;SDS011;43465;50.728;4.160;2023-05-01T11:20:04;26.80;;;21.45;;
57635;SDS011;43465;50.728;4.160;2023-05-01T11:22:34;22.95;;;19.58;;
57635;SDS011;43465;50.728;4.160;2023-05-01T11:25:03;20.63;;;18.25;;
57635;SDS011;43465;50.728;4.160;2023-05-01T11:27:45;23.77;;;19.35;;
57635;SDS011;43465;50.728;4.160;2023-05-01T11:30:18;22.27;;;18.83;;
57635;SDS011;43465;50.728;4.160;2023-05-01T11:32:45;25.02;;;19.65;;
57635;SDS011;43465;50.728;4.160;2023-05-01T11:35:20;22.50;;;18.20;;
57635;SDS011;43465;50.728;4.160;2023-05-01T11:37:48;22.05;;;19.00;;
57635;SDS011;43465;50.728;4.160;2023-05-01T11:40:20;21.97;;;17.83;;
57635;SDS011;43465;50.728;4.160;2023-05-01T11:42:59;22.77;;;18.75;;
57635;SDS011;43465;50.728;4.160;2023-05-01T11:45:29;23.90;;;19.00;;
57635;SDS011;43465;50.728;4.160;2023-05-01T11:47:55;22.02;;;18.42;;
57635;SDS011;43465;50.728;4.160;2023-05-01T11:50:21;22.52;;;18.77;;
57635;SDS011;43465;50.728;4.160;2023-05-01T11:52:55;22.33;;;18.38;;
57635;SDS011;43465;50.728;4.160;2023-05-01T11:55:25;22.50;;;19.02;;
57635;SDS011;43465;50.728;4.160;2023-05-01T11:57:58;23.65;;;19.67;;
57635;SDS011;43465;50.728;4.160;2023-05-01T12:00:34;23.42;;;18.65;;
57635;SDS011;43465;50.728;4.160;2023-05-01T12:03:03;23.00;;;19.55;;
57635;SDS011;43465;50.728;4.160;2023-05-01T12:05:34;23.80;;;20.10;;
57635;SDS011;43465;50.728;4.160;2023-05-01T12:10:42;22.88;;;20.40;;
57635;SDS011;43465;50.728;4.160;2023-05-01T12:13:10;23.95;;;19.42;;
57635;SDS011;43465;50.728;4.160;2023-05-01T12:15:38;26.33;;;22.00;;
57635;SDS011;43465;50.728;4.160;2023-05-01T12:18:10;23.17;;;20.42;;
57635;SDS011;43465;50.728;4.160;2023-05-01T12:20:37;25.80;;;21.08;;
57635;SDS011;43465;50.728;4.160;2023-05-01T12:23:05;26.55;;;19.90;;
57635;SDS011;43465;50.728;4.160;2023-05-01T12:25:32;22.92;;;20.30;;
57635;SDS011;43465;50.728;4.160;2023-05-01T12:28:02;23.52;;;20.83;;
57635;SDS011;43465;50.728;4.160;2023-05-01T12:30:39;22.02;;;19.25;;
57635;SDS011;43465;50.728;4.160;2023-05-01T12:33:17;23.23;;;20.17;;
57635;SDS011;43465;50.728;4.160;2023-05-01T12:35:44;24.15;;;19.95;;
57635;SDS011;43465;50.728;4.160;2023-05-01T12:38:15;26.10;;;20.60;;
57635;SDS011;43465;50.728;4.160;2023-05-01T12:40:58;28.10;;;21.67;;
57635;SDS011;43465;50.728;4.160;2023-05-01T12:43:28;24.95;;;22.15;;
57635;SDS011;43465;50.728;4.160;2023-05-01T12:45:58;31.40;;;22.85;;
57635;SDS011;43465;50.728;4.160;2023-05-01T12:48:24;26.15;;;22.88;;
57635;SDS011;43465;50.728;4.160;2023-05-01T12:50:51;26.35;;;22.55;;
57635;SDS011;43465;50.728;4.160;2023-05-01T12:53:25;25.88;;;22.65;;
57635;SDS011;43465;50.728;4.160;2023-05-01T12:55:52;26.25;;;21.42;;
57635;SDS011;43465;50.728;4.160;2023-05-01T12:58:19;25.00;;;21.52;;
57635;SDS011;43465;50.728;4.160;2023-05-01T13:03:18;23.88;;;21.23;;
57635;SDS011;43465;50.728;4.160;2023-05-01T13:05:52;23.73;;;21.23;;
57635;SDS011;43465;50.728;4.160;2023-05-01T13:08:26;27.80;;;22.45;;
57635;SDS011;43465;50.728;4.160;2023-05-01T13:10:58;25.20;;;22.50;;
57635;SDS011;43465;50.728;4.160;2023-05-01T13:13:25;27.73;;;23.20;;
57635;SDS011;43465;50.728;4.160;2023-05-01T13:16:14;29.38;;;22.73;;
57635;SDS011;43465;50.728;4.160;2023-05-01T13:18:44;29.95;;;24.83;;
57635;SDS011;43465;50.728;4.160;2023-05-01T13:21:11;29.45;;;24.42;;
57635;SDS011;43465;50.728;4.160;2023-05-01T13:23:39;28.45;;;23.40;;
57635;SDS011;43465;50.728;4.160;2023-05-01T13:26:06;27.58;;;22.52;;
57635;SDS011;43465;50.728;4.160;2023-05-01T13:28:43;27.77;;;24.15;;
57635;SDS011;43465;50.728;4.160;2023-05-01T13:31:10;29.20;;;23.77;;
57635;SDS011;43465;50.728;4.160;2023-05-01T13:33:38;29.02;;;23.98;;
57635;SDS011;43465;50.728;4.160;2023-05-01T13:36:05;28.02;;;22.60;;
57635;SDS011;43465;50.728;4.160;2023-05-01T13:38:32;29.73;;;22.20;;
57635;SDS011;43465;50.728;4.160;2023-05-01T13:41:12;27.08;;;22.92;;
57635;SDS011;43465;50.728;4.160;2023-05-01T13:43:38;25.17;;;22.42;;
57635;SDS011;43465;50.728;4.160;2023-05-01T13:46:04;26.40;;;22.75;;
57635;SDS011;43465;50.728;4.160;2023-05-01T13:48:30;27.33;;;22.73;;
57635;SDS011;43465;50.728;4.160;2023-05-01T13:50:58;27.77;;;21.63;;
57635;SDS011;43465;50.728;4.160;2023-05-01T13:53:23;24.63;;;20.27;;
57635;SDS011;43465;50.728;4.160;2023-05-01T13:55:49;22.88;;;19.08;;
57635;SDS011;43465;50.728;4.160;2023-05-01T13:58:15;28.02;;;20.08;;
57635;SDS011;43465;50.728;4.160;2023-05-01T14:00:43;22.25;;;19.33;;
57635;SDS011;43465;50.728;4.160;2023-05-01T14:03:12;23.33;;;19.55;;
57635;SDS011;43465;50.728;4.160;2023-05-01T14:05:40;22.52;;;18.80;;
57635;SDS011;43465;50.728;4.160;2023-05-01T14:08:07;23.58;;;19.85;;
57635;SDS011;43465;50.728;4.160;2023-05-01T14:10:33;29.52;;;22.35;;
57635;SDS011;43465;50.728;4.160;2023-05-01T14:12:58;21.80;;;18.40;;
57635;SDS011;43465;50.728;4.160;2023-05-01T14:15:25;20.10;;;17.58;;
57635;SDS011;43465;50.728;4.160;2023-05-01T14:17:52;20.60;;;16.08;;
57635;SDS011;43465;50.728;4.160;2023-05-01T14:20:18;25.65;;;17.58;;
57635;SDS011;43465;50.728;4.160;2023-05-01T14:22:45;20.48;;;18.30;;
57635;SDS011;43465;50.728;4.160;2023-05-01T14:27:48;20.30;;;16.88;;
57635;SDS011;43465;50.728;4.160;2023-05-01T14:30:32;19.83;;;17.25;;
57635;SDS011;43465;50.728;4.160;2023-05-01T14:33:05;18.10;;;15.80;;
57635;SDS011;43465;50.728;4.160;2023-05-01T14:35:47;20.95;;;16.35;;
57635;SDS011;43465;50.728;4.160;2023-05-01T14:38:14;20.17;;;17.27;;
57635;SDS011;43465;50.728;4.160;2023-05-01T14:40:42;18.45;;;14.85;;
57635;SDS011;43465;50.728;4.160;2023-05-01T14:43:08;19.88;;;16.15;;
57635;SDS011;43465;50.728;4.160;2023-05-01T14:45:39;16.35;;;14.43;;
57635;SDS011;43465;50.728;4.160;2023-05-01T14:48:06;15.00;;;13.40;;
57635;SDS011;43465;50.728;4.160;2023-05-01T14:50:32;14.95;;;13.13;;
57635;SDS011;43465;50.728;4.160;2023-05-01T14:52:58;14.07;;;12.55;;
57635;SDS011;43465;50.728;4.160;2023-05-01T14:55:26;13.30;;;11.30;;
57635;SDS011;43465;50.728;4.160;2023-05-01T14:57:53;12.73;;;11.52;;
57635;SDS011;43465;50.728;4.160;2023-05-01T15:00:19;15.35;;;13.05;;
57635;SDS011;43465;50.728;4.160;2023-05-01T15:02:45;14.30;;;12.80;;
57635;SDS011;43465;50.728;4.160;2023-05-01T15:05:10;14.85;;;11.90;;
57635;SDS011;43465;50.728;4.160;2023-05-01T15:07:36;14.70;;;12.88;;
57635;SDS011;43465;50.728;4.160;2023-05-01T15:10:02;16.60;;;13.57;;
57635;SDS011;43465;50.728;4.160;2023-05-01T15:12:28;21.50;;;14.75;;
57635;SDS011;43465;50.728;4.160;2023-05-01T15:14:54;17.17;;;14.70;;